Time;durP1;ratioP1;P1;durP2;ratioP2;P2;SDS_P1;SDS_P2;PMS_P1;PMS_P2;Temp;Humidity;BMP_temperature;BMP_pressure;BME280_temperature;BME280_humidity;BME280_pressure;Samples;Min_cycle;Max_cycle;Signal;HPM_P1;HPM_P2
2023/04/11 00:02:14;;;;;;;3.17;2.40;;;;;;;15.14;69.17;100185.41;4881436;29;20244;-64
2023/04/11 00:04:42;;;;;;;4.10;2.57;;;;;;;15.13;69.47;100165.88;4884562;29;20762;-64
2023/04/11 00:07:10;;;;;;;2.87;2.20;;;;;;;15.09;69.30;100156.59;4879349;29;20987;-64
2023/04/11 00:09:38;;;;;;;3.60;2.60;;;;;;;15.14;69.14;100169.38;4881722;29;20218;-65
2023/04/11 00:12:07;;;;;;;3.57;2.13;;;;;;;15.12;68.89;100166.09;4883024;29;20216;-65
2023/04/11 00:14:34;;;;;;;5.23;2.50;;;;;;;15.12;68.37;100156.25;4883210;29;20966;-67
2023/04/11 00:17:04;;;;;;;2.87;1.80;;;;;;;15.04;67.14;100137.63;4880047;29;20779;-66
2023/04/11 00:19:32;;;;;;;3.60;1.70;;;;;;;14.97;67.49;100139.38;4881937;29;20217;-66
2023/04/11 00:22:00;;;;;;;4.13;1.63;;;;;;;14.96;67.18;100151.88;4878917;29;20280;-65
2023/04/11 00:24:28;;;;;;;4.57;1.90;;;;;;;14.95;67.10;100170.78;4880437;29;20214;-65
2023/04/11 00:26:57;;;;;;;2.57;1.67;;;;;;;14.99;66.37;100140.03;4881970;29;20218;-66
2023/04/11 00:29:24;;;;;;;2.03;1.30;;;;;;;14.97;66.55;100152.72;4884131;29;20651;-67
2023/04/11 00:31:54;;;;;;;2.87;1.77;;;;;;;14.98;66.05;100149.03;4882055;29;20214;-67
2023/04/11 00:34:23;;;;;;;4.10;1.60;;;;;;;14.95;65.86;100155.56;4880766;29;20220;-64
2023/04/11 00:36:51;;;;;;;2.50;1.20;;;;;;;14.94;65.48;100180.63;4878241;29;20220;-64
2023/04/11 00:39:20;;;;;;;3.13;1.53;;;;;;;14.93;64.99;100178.16;4877730;29;20675;-65
2023/04/11 00:41:47;;;;;;;3.30;1.17;;;;;;;14.93;64.28;100162.13;4883167;29;20761;-65
2023/04/11 00:44:15;;;;;;;2.70;1.27;;;;;;;14.84;64.33;100158.72;4880253;29;20241;-66
2023/04/11 00:46:45;;;;;;;1.90;1.13;;;;;;;14.81;64.38;100153.72;4881707;29;20222;-66
2023/04/11 00:49:13;;;;;;;2.33;1.07;;;;;;;14.86;63.38;100150.53;4878673;29;20317;-64
2023/04/11 00:51:42;;;;;;;2.67;1.40;;;;;;;14.90;63.16;100155.31;4875152;29;20251;-64
2023/04/11 00:54:10;;;;;;;2.03;0.93;;;;;;;14.91;61.88;100158.81;4878648;29;20221;-68
2023/04/11 00:56:39;;;;;;;1.83;0.83;;;;;;;14.94;61.40;100166.47;4877948;29;21062;-66
2023/04/11 00:59:07;;;;;;;3.30;0.90;;;;;;;14.98;61.92;100167.72;4878544;29;21146;-64
2023/04/11 01:01:35;;;;;;;2.10;1.10;;;;;;;14.95;62.40;100179.59;4875354;29;20249;-65
2023/04/11 01:04:03;;;;;;;2.17;1.10;;;;;;;14.94;62.59;100194.00;4882229;29;20222;-65
2023/04/11 01:06:32;;;;;;;2.20;0.93;;;;;;;14.95;63.05;100192.16;4876027;29;20224;-65
2023/04/11 01:09:03;;;;;;;2.40;1.30;;;;;;;14.86;63.75;100187.91;4877315;29;20292;-67
2023/04/11 01:11:32;;;;;;;2.37;0.87;;;;;;;14.79;63.48;100197.63;4879135;29;20218;-65
2023/04/11 01:14:00;;;;;;;2.47;0.90;;;;;;;14.78;63.58;100195.97;4877520;29;20218;-67
2023/04/11 01:16:28;;;;;;;2.53;1.00;;;;;;;14.71;65.00;100192.38;4880871;29;20652;-67
2023/04/11 01:18:56;;;;;;;2.07;0.80;;;;;;;14.64;64.01;100185.09;4876813;29;20326;-66
2023/04/11 01:21:25;;;;;;;1.77;0.70;;;;;;;14.61;64.10;100174.78;4881108;29;20752;-66
2023/04/11 01:23:57;;;;;;;2.57;0.80;;;;;;;14.58;64.59;100180.50;4878271;29;20337;-68
2023/04/11 01:26:25;;;;;;;1.40;0.80;;;;;;;14.55;64.71;100196.03;4877051;29;20232;-67
2023/04/11 01:28:52;;;;;;;2.73;0.67;;;;;;;14.49;65.06;100194.91;4880472;29;20876;-69
2023/04/11 01:31:21;;;;;;;2.27;0.60;;;;;;;14.48;64.19;100201.25;4875673;29;20228;-69
2023/04/11 01:33:49;;;;;;;2.03;0.63;;;;;;;14.44;63.55;100199.94;4880409;29;20321;-69
2023/04/11 01:36:16;;;;;;;2.40;0.57;;;;;;;14.41;63.99;100208.31;4878921;29;20264;-67
2023/04/11 01:38:44;;;;;;;1.37;0.60;;;;;;;14.40;64.32;100222.66;4881398;29;20698;-68
2023/04/11 01:41:15;;;;;;;1.83;0.57;;;;;;;14.38;64.07;100203.31;4879631;29;20214;-68
2023/04/11 01:43:43;;;;;;;1.73;0.67;;;;;;;14.33;63.71;100213.69;4878693;29;20633;-67
2023/04/11 01:46:11;;;;;;;2.47;0.83;;;;;;;14.28;63.44;100221.38;4879918;29;20261;-68
2023/04/11 01:48:39;;;;;;;1.43;0.50;;;;;;;14.29;63.48;100217.72;4877002;29;20304;-69
2023/04/11 01:51:07;;;;;;;3.23;0.60;;;;;;;14.30;63.13;100216.69;4879250;29;20591;-69
2023/04/11 01:53:35;;;;;;;1.47;0.60;;;;;;;14.30;63.11;100227.38;4879832;29;20586;-69
2023/04/11 01:56:03;;;;;;;2.80;0.67;;;;;;;14.25;63.52;100216.38;4877163;29;20218;-67
2023/04/11 01:58:32;;;;;;;1.73;0.53;;;;;;;14.23;63.95;100223.75;4880102;29;20224;-69
2023/04/11 02:01:00;;;;;;;1.17;0.60;;;;;;;14.19;64.30;100212.59;4879987;29;20661;-69
2023/04/11 02:03:28;;;;;;;2.10;0.80;;;;;;;13.99;67.81;100211.41;4878850;29;20800;-66
2023/04/11 02:05:56;;;;;;;2.70;0.70;;;;;;;13.78;69.94;100213.88;4879959;29;20213;-68
2023/04/11 02:08:24;;;;;;;1.30;0.50;;;;;;;13.67;70.90;100212.44;4879015;29;20217;-67
2023/04/11 02:10:51;;;;;;;4.77;0.90;;;;;;;13.68;70.62;100214.09;4876275;29;20220;-68
2023/04/11 02:13:19;;;;;;;1.53;0.60;;;;;;;13.72;68.54;100218.06;4877999;29;20224;-68
2023/04/11 02:15:48;;;;;;;3.17;0.80;;;;;;;13.81;68.28;100225.00;4876214;29;20223;-68
2023/04/11 02:18:16;;;;;;;2.53;0.77;;;;;;;13.80;69.75;100218.03;4879735;29;20220;-68
2023/04/11 02:20:43;;;;;;;2.00;0.70;;;;;;;13.67;72.51;100217.75;4879897;29;20218;-68
2023/04/11 02:23:11;;;;;;;4.53;0.90;;;;;;;13.50;73.59;100230.31;4875570;29;20326;-69
2023/04/11 02:25:39;;;;;;;2.13;0.80;;;;;;;13.52;72.29;100230.16;4878403;29;20259;-68
2023/04/11 02:28:07;;;;;;;1.60;0.60;;;;;;;13.57;71.88;100212.63;4878127;29;20233;-70
2023/04/11 02:30:35;;;;;;;1.93;0.60;;;;;;;13.59;73.02;100216.97;4879056;29;20977;-68
2023/04/11 02:33:04;;;;;;;4.40;1.03;;;;;;;13.59;73.77;100212.47;4877386;29;20708;-68
2023/04/11 02:35:32;;;;;;;2.83;0.73;;;;;;;13.48;73.82;100211.00;4880754;29;20818;-69
2023/04/11 02:37:59;;;;;;;6.67;1.10;;;;;;;13.29;75.81;100219.41;4877480;29;20214;-68
2023/04/11 02:40:27;;;;;;;1.83;0.60;;;;;;;13.18;74.79;100222.44;4879681;29;20226;-67
2023/04/11 02:42:55;;;;;;;2.63;0.80;;;;;;;13.26;74.39;100232.25;4881213;29;20307;-69
2023/04/11 02:45:23;;;;;;;4.67;1.17;;;;;;;13.25;75.11;100234.06;4879745;29;20226;-69
2023/04/11 02:47:50;;;;;;;4.03;0.77;;;;;;;13.29;74.76;100237.22;4877796;29;20584;-67
2023/04/11 02:50:19;;;;;;;5.20;1.20;;;;;;;13.35;74.27;100228.56;4880705;29;20218;-68
2023/04/11 02:52:48;;;;;;;5.43;0.93;;;;;;;13.41;74.09;100227.84;4877552;29;20556;-68
2023/04/11 02:55:17;;;;;;;4.57;0.60;;;;;;;13.27;76.23;100242.72;4879075;29;20305;-69
2023/04/11 02:57:44;;;;;;;4.13;0.70;;;;;;;13.24;76.45;100231.59;4882443;29;20218;-68
2023/04/11 03:00:13;;;;;;;5.67;1.10;;;;;;;13.10;78.84;100230.44;4881565;29;20211;-69
2023/04/11 03:02:41;;;;;;;6.10;0.97;;;;;;;12.97;79.22;100232.78;4878512;29;20278;-69
2023/04/11 03:05:09;;;;;;;4.30;0.97;;;;;;;12.99;78.70;100234.28;4875182;29;20618;-69
2023/04/11 03:07:39;;;;;;;4.47;1.00;;;;;;;13.08;78.11;100233.25;4871505;29;22325;-67
2023/04/11 03:10:08;;;;;;;5.63;1.00;;;;;;;13.14;76.13;100221.13;4875141;29;20228;-69
2023/04/11 03:12:36;;;;;;;3.97;0.80;;;;;;;13.04;77.63;100226.59;4875565;29;20309;-67
2023/04/11 03:15:04;;;;;;;6.70;1.07;;;;;;;12.87;78.21;100230.28;4876842;29;20237;-68
2023/04/11 03:17:32;;;;;;;2.60;0.90;;;;;;;12.83;79.35;100228.97;4877295;29;20214;-62
2023/04/11 03:19:59;;;;;;;2.30;0.70;;;;;;;12.92;79.28;100233.28;4876010;29;20250;-62
2023/04/11 03:22:27;;;;;;;3.30;1.00;;;;;;;13.00;78.76;100241.25;4874619;29;20249;-62
2023/04/11 03:24:56;;;;;;;3.73;1.17;;;;;;;13.00;78.03;100241.25;4874713;29;20662;-62
2023/04/11 03:27:24;;;;;;;5.30;0.97;;;;;;;13.07;76.47;100242.25;4874410;29;20219;-61
2023/04/11 03:29:51;;;;;;;4.57;0.80;;;;;;;13.10;76.26;100239.25;4880148;29;20236;-62
2023/04/11 03:32:22;;;;;;;3.77;0.90;;;;;;;12.99;77.35;100233.44;4873758;29;20233;-60
2023/04/11 03:34:50;;;;;;;4.40;0.63;;;;;;;12.92;78.64;100246.59;4874136;29;20344;-61
2023/04/11 03:37:18;;;;;;;4.37;1.00;;;;;;;12.96;78.36;100223.97;4873691;29;20288;-61
2023/04/11 03:39:45;;;;;;;4.07;1.00;;;;;;;12.83;78.68;100223.66;4876266;29;20214;-61
2023/04/11 03:42:14;;;;;;;1.77;0.70;;;;;;;12.69;79.60;100200.38;4879087;29;20218;-63
2023/04/11 03:44:42;;;;;;;3.00;0.73;;;;;;;12.49;79.56;100199.09;4880961;29;20238;-64
2023/04/11 03:47:10;;;;;;;2.37;1.00;;;;;;;12.38;80.70;100211.72;4880349;29;20226;-63
2023/04/11 03:49:37;;;;;;;5.03;1.20;;;;;;;12.41;82.02;100229.97;4880423;29;20349;-64
2023/04/11 03:52:06;;;;;;;2.20;0.70;;;;;;;12.56;80.90;100237.31;4876768;29;20229;-62
2023/04/11 03:54:33;;;;;;;3.03;0.90;;;;;;;12.67;79.70;100240.44;4878912;29;20210;-62
2023/04/11 03:57:01;;;;;;;2.57;1.30;;;;;;;12.77;78.75;100237.63;4879710;29;20232;-61
2023/04/11 03:59:30;;;;;;;1.30;0.60;;;;;;;12.77;78.50;100240.28;4880362;29;20238;-60
2023/04/11 04:01:58;;;;;;;4.03;0.80;;;;;;;12.85;77.40;100234.09;4882373;29;20664;-61
2023/04/11 04:04:26;;;;;;;1.83;0.80;;;;;;;12.88;75.72;100239.94;4881223;29;20245;-61
2023/04/11 04:06:55;;;;;;;3.97;1.03;;;;;;;12.93;74.94;100228.81;4881977;29;20218;-62
2023/04/11 04:09:23;;;;;;;2.27;0.60;;;;;;;12.95;73.97;100234.75;4883581;29;20225;-61
2023/04/11 04:11:51;;;;;;;1.80;0.70;;;;;;;12.98;73.69;100237.94;4885154;29;20224;-63
2023/04/11 04:14:18;;;;;;;1.57;0.70;;;;;;;12.94;73.21;100220.63;4883319;29;20210;-62
2023/04/11 04:16:48;;;;;;;1.23;0.43;;;;;;;12.91;72.95;100220.97;4884416;29;20301;-62
2023/04/11 04:19:15;;;;;;;1.57;0.70;;;;;;;12.86;72.50;100212.66;4881907;29;20232;-62
2023/04/11 04:21:44;;;;;;;3.33;0.77;;;;;;;12.88;73.40;100205.34;4882877;29;20206;-61
2023/04/11 04:24:12;;;;;;;1.77;0.50;;;;;;;12.71;76.46;100201.88;4881012;29;20222;-61
2023/04/11 04:26:40;;;;;;;2.97;0.70;;;;;;;12.59;76.71;100221.00;4880942;29;20224;-62
2023/04/11 04:29:08;;;;;;;1.43;0.50;;;;;;;12.57;76.96;100233.66;4882765;29;20224;-61
2023/04/11 04:31:37;;;;;;;1.17;0.50;;;;;;;12.51;77.97;100242.28;4881684;29;20210;-62
2023/04/11 04:34:08;;;;;;;5.63;0.60;;;;;;;12.49;77.31;100252.28;4882360;29;20213;-63
2023/04/11 04:36:45;;;;;;;2.47;0.57;;;;;;;12.53;77.42;100249.09;4881931;29;20225;-61
2023/04/11 04:39:16;;;;;;;2.60;0.73;;;;;;;12.60;75.28;100247.44;4883875;29;20217;-62
2023/04/11 04:41:47;;;;;;;1.83;0.57;;;;;;;12.61;73.81;100251.75;4883474;29;20214;-60
2023/04/11 04:44:15;;;;;;;3.30;0.50;;;;;;;12.63;73.75;100259.59;4880774;29;20234;-61
2023/04/11 04:46:43;;;;;;;1.47;0.60;;;;;;;12.66;73.44;100260.09;4882973;29;20217;-62
2023/04/11 04:49:12;;;;;;;2.33;1.00;;;;;;;12.66;73.46;100264.59;4882722;29;20313;-61
2023/04/11 04:51:40;;;;;;;1.67;0.60;;;;;;;12.68;73.35;100246.59;4883371;29;20747;-63
2023/04/11 04:54:07;;;;;;;1.60;0.50;;;;;;;12.68;73.79;100257.25;4884624;29;20210;-62
2023/04/11 04:56:35;;;;;;;3.40;0.90;;;;;;;12.59;75.39;100264.38;4880961;29;20630;-60
2023/04/11 04:59:03;;;;;;;4.50;0.63;;;;;;;12.61;75.31;100265.06;4879701;29;20671;-61
2023/04/11 05:01:31;;;;;;;2.67;0.50;;;;;;;12.62;74.71;100272.03;4884506;29;20205;-62
2023/04/11 05:04:00;;;;;;;2.83;0.63;;;;;;;12.63;74.42;100268.41;4884224;29;20759;-62
2023/04/11 05:06:32;;;;;;;1.93;0.77;;;;;;;12.63;74.26;100270.22;4880983;29;20221;-62
2023/04/11 05:09:01;;;;;;;2.13;0.60;;;;;;;12.59;74.54;100274.19;4881061;29;20214;-63
2023/04/11 05:11:29;;;;;;;3.20;0.73;;;;;;;12.64;74.57;100279.88;4883119;29;20704;-62
2023/04/11 05:13:56;;;;;;;4.30;0.57;;;;;;;12.67;75.09;100298.13;4881941;29;20214;-61
2023/04/11 05:16:25;;;;;;;2.37;0.67;;;;;;;12.66;75.67;100291.19;4881092;29;20221;-60
2023/04/11 05:18:53;;;;;;;3.27;0.80;;;;;;;12.59;76.43;100291.00;4882165;29;20213;-64
2023/04/11 05:21:21;;;;;;;2.10;0.80;;;;;;;12.56;76.48;100296.66;4882639;29;20218;-63
2023/04/11 05:23:50;;;;;;;2.47;1.13;;;;;;;12.58;77.06;100304.44;4880921;29;20252;-61
2023/04/11 05:26:18;;;;;;;4.57;0.80;;;;;;;12.61;77.40;100301.47;4881300;29;20217;-62
2023/04/11 05:28:45;;;;;;;1.93;0.63;;;;;;;12.63;77.01;100302.13;4882487;29;21248;-62
2023/04/11 05:31:13;;;;;;;2.93;0.70;;;;;;;12.64;76.56;100301.16;4883301;29;20546;-62
2023/04/11 05:33:42;;;;;;;3.07;0.87;;;;;;;12.64;75.67;100309.13;4881830;29;20214;-63
2023/04/11 05:36:12;;;;;;;2.40;0.90;;;;;;;12.65;74.06;100313.47;4878981;29;20246;-64
2023/04/11 05:38:40;;;;;;;2.27;0.70;;;;;;;12.60;72.73;100319.25;4882599;29;21415;-63
2023/04/11 05:41:10;;;;;;;3.43;0.70;;;;;;;12.66;71.99;100323.09;4880427;29;20359;-62
2023/04/11 05:43:38;;;;;;;4.43;1.10;;;;;;;12.69;71.76;100320.09;4881912;29;20232;-63
2023/04/11 05:46:07;;;;;;;3.77;0.80;;;;;;;12.72;71.56;100317.13;4880836;29;20256;-63
2023/04/11 05:48:36;;;;;;;4.17;1.30;;;;;;;12.75;70.89;100319.44;4882500;29;20210;-63
2023/04/11 05:51:04;;;;;;;4.77;0.90;;;;;;;12.76;70.05;100327.25;4881813;29;20227;-63
2023/04/11 05:53:32;;;;;;;2.57;0.80;;;;;;;12.82;70.37;100326.59;4879366;29;20363;-63
2023/04/11 05:56:00;;;;;;;4.10;1.30;;;;;;;12.88;70.09;100330.41;4879435;29;20232;-63
2023/04/11 05:58:29;;;;;;;4.37;0.87;;;;;;;12.92;69.56;100339.75;4882349;29;20221;-62
2023/04/11 06:00:58;;;;;;;4.77;1.00;;;;;;;12.94;68.82;100343.06;4881209;29;20214;-63
2023/04/11 06:03:26;;;;;;;4.07;1.10;;;;;;;12.98;68.46;100349.72;4881226;29;20271;-63
2023/04/11 06:05:54;;;;;;;7.17;1.00;;;;;;;13.00;68.36;100361.03;4878833;29;21119;-61
2023/04/11 06:08:22;;;;;;;6.43;1.13;;;;;;;13.01;68.70;100368.03;4880296;29;20680;-63
2023/04/11 06:10:50;;;;;;;4.07;0.87;;;;;;;13.03;68.33;100368.66;4880024;29;20222;-63
2023/04/11 06:13:17;;;;;;;5.23;1.00;;;;;;;13.06;68.26;100370.19;4880872;29;20216;-59
2023/04/11 06:15:46;;;;;;;5.17;1.00;;;;;;;13.09;68.22;100368.03;4879799;29;20568;-62
2023/04/11 06:18:14;;;;;;;3.57;1.00;;;;;;;13.07;67.55;100375.34;4878568;29;20637;-62
2023/04/11 06:20:42;;;;;;;3.57;0.80;;;;;;;13.05;68.13;100374.66;4881336;29;20727;-63
2023/04/11 06:23:09;;;;;;;3.83;0.70;;;;;;;13.05;68.36;100372.00;4879233;29;20253;-63
2023/04/11 06:25:37;;;;;;;5.80;1.10;;;;;;;13.06;68.59;100372.84;4879353;29;20256;-60
2023/04/11 06:28:05;;;;;;;4.43;1.00;;;;;;;13.05;68.78;100384.47;4879782;29;20247;-64
2023/04/11 06:30:33;;;;;;;3.60;1.00;;;;;;;13.11;68.91;100386.47;4877928;29;20282;-63
2023/04/11 06:33:02;;;;;;;4.70;1.10;;;;;;;13.08;68.42;100387.66;4882849;29;20215;-62
2023/04/11 06:35:30;;;;;;;4.77;1.37;;;;;;;13.10;67.89;100385.66;4878426;29;20298;-60
2023/04/11 06:37:57;;;;;;;3.20;0.87;;;;;;;13.13;67.89;100379.16;4881007;29;20212;-61
2023/04/11 06:40:25;;;;;;;11.67;1.37;;;;;;;13.16;67.51;100390.34;4879001;29;20928;-63
2023/04/11 06:42:54;;;;;;;6.87;1.40;;;;;;;13.20;66.95;100401.47;4880685;29;20222;-63
2023/04/11 06:45:23;;;;;;;5.60;1.40;;;;;;;13.23;66.51;100405.66;4879139;29;20262;-62
2023/04/11 06:47:50;;;;;;;7.90;1.23;;;;;;;13.26;66.77;100410.66;4880713;29;20234;-62
2023/04/11 06:50:19;;;;;;;7.20;1.37;;;;;;;13.31;66.22;100408.31;4882028;29;20217;-63
2023/04/11 06:52:47;;;;;;;4.93;1.23;;;;;;;13.28;66.35;100409.47;4879352;29;20222;-60
2023/04/11 06:55:15;;;;;;;10.90;1.70;;;;;;;13.36;65.95;100413.97;4880019;29;20229;-62
2023/04/11 06:57:43;;;;;;;4.80;1.13;;;;;;;13.36;64.79;100420.16;4877173;29;20280;-61
2023/04/11 07:00:12;;;;;;;4.73;1.30;;;;;;;13.40;63.50;100417.97;4878822;29;20229;-61
2023/04/11 07:02:40;;;;;;;8.23;1.37;;;;;;;13.43;62.29;100407.81;4880944;29;20698;-61
2023/04/11 07:05:09;;;;;;;6.43;1.00;;;;;;;13.46;62.47;100420.78;4878401;29;20733;-62
2023/04/11 07:07:38;;;;;;;5.50;1.37;;;;;;;13.45;62.87;100426.28;4880256;29;20560;-63
2023/04/11 07:10:07;;;;;;;8.47;1.27;;;;;;;13.45;63.65;100426.28;4878318;29;20209;-62
2023/04/11 07:12:35;;;;;;;6.97;1.10;;;;;;;13.44;63.94;100424.63;4879501;29;20209;-62
2023/04/11 07:15:03;;;;;;;15.20;2.83;;;;;;;13.36;62.99;100421.97;4880089;29;20211;-61
2023/04/11 07:17:31;;;;;;;5.57;1.43;;;;;;;13.29;64.24;100426.28;4880225;29;20227;-61
2023/04/11 07:19:59;;;;;;;7.10;1.10;;;;;;;13.34;64.65;100426.63;4879122;29;20243;-63
2023/04/11 07:22:28;;;;;;;5.40;1.57;;;;;;;13.39;64.20;100416.28;4880051;29;20262;-61
2023/04/11 07:24:57;;;;;;;5.20;1.33;;;;;;;13.42;64.55;100427.47;4881118;29;20212;-61
2023/04/11 07:27:25;;;;;;;7.47;1.50;;;;;;;13.47;62.95;100434.94;4879008;29;20217;-60
2023/04/11 07:29:53;;;;;;;8.50;1.50;;;;;;;13.47;61.91;100430.44;4879236;29;20260;-61
2023/04/11 07:32:20;;;;;;;9.20;1.40;;;;;;;13.57;61.37;100430.25;4883965;29;20218;-61
2023/04/11 07:34:48;;;;;;;7.40;1.20;;;;;;;13.64;60.18;100438.41;4885563;29;20228;-61
2023/04/11 07:37:16;;;;;;;8.40;1.90;;;;;;;13.64;59.34;100441.91;4884922;29;20299;-60
2023/04/11 07:39:44;;;;;;;13.57;1.77;;;;;;;13.68;58.18;100437.91;4881434;29;20224;-62
2023/04/11 07:42:13;;;;;;;4.90;0.93;;;;;;;13.78;57.28;100441.22;4882203;29;20220;-62
2023/04/11 07:44:41;;;;;;;9.63;1.40;;;;;;;13.97;56.60;100445.38;4881627;29;20275;-61
2023/04/11 07:47:09;;;;;;;7.67;1.60;;;;;;;14.04;56.26;100445.50;4876052;29;20242;-60
2023/04/11 07:49:36;;;;;;;9.23;1.40;;;;;;;14.17;56.56;100453.78;4885991;29;20221;-59
2023/04/11 07:52:04;;;;;;;6.10;1.20;;;;;;;14.35;54.69;100445.56;4882424;29;20446;-62
2023/04/11 07:54:33;;;;;;;7.10;1.30;;;;;;;14.35;53.23;100441.06;4883078;29;20235;-61
2023/04/11 07:57:00;;;;;;;11.23;1.50;;;;;;;14.37;52.59;100446.22;4882825;29;20217;-61
2023/04/11 07:59:30;;;;;;;6.70;1.67;;;;;;;14.44;53.30;100449.88;4884029;29;20228;-61
2023/04/11 08:01:59;;;;;;;7.00;1.20;;;;;;;14.54;52.90;100442.50;4881566;29;20221;-61
2023/04/11 08:04:31;;;;;;;8.03;1.67;;;;;;;14.53;52.70;100457.69;4884869;29;20253;-61
2023/04/11 08:06:59;;;;;;;6.67;1.43;;;;;;;14.59;51.73;100457.00;4882818;29;20664;-59
2023/04/11 08:09:27;;;;;;;10.07;1.50;;;;;;;14.72;51.36;100455.59;4883283;29;20737;-60
2023/04/11 08:11:55;;;;;;;5.00;1.40;;;;;;;14.83;49.68;100453.38;4880219;29;20210;-61
2023/04/11 08:14:23;;;;;;;8.03;2.10;;;;;;;14.87;50.40;100454.66;4884890;29;20217;-60
2023/04/11 08:16:52;;;;;;;8.90;1.63;;;;;;;14.86;50.57;100461.03;4880382;29;20218;-60
2023/04/11 08:19:20;;;;;;;7.60;1.20;;;;;;;14.62;49.48;100464.63;4884187;29;21165;-61
2023/04/11 08:21:48;;;;;;;5.83;1.50;;;;;;;14.53;49.17;100473.69;4880901;29;20219;-62
2023/04/11 08:24:16;;;;;;;5.53;1.03;;;;;;;14.41;48.83;100459.09;4883684;29;20350;-60
2023/04/11 08:26:44;;;;;;;4.97;1.50;;;;;;;14.45;48.08;100467.56;4881968;29;20321;-60
2023/04/11 08:29:12;;;;;;;7.13;1.10;;;;;;;14.39;47.40;100466.41;4881620;29;20210;-62
2023/04/11 08:31:42;;;;;;;8.40;1.47;;;;;;;14.50;47.61;100482.06;4883897;29;20210;-61
2023/04/11 08:34:12;;;;;;;8.57;1.30;;;;;;;14.51;46.60;100473.03;4882548;29;20254;-62
2023/04/11 08:36:40;;;;;;;5.80;1.20;;;;;;;14.68;46.54;100458.63;4879454;29;20691;-66
2023/04/11 08:39:08;;;;;;;8.37;1.17;;;;;;;14.86;47.12;100461.03;4873872;29;20221;-62
2023/04/11 08:41:38;;;;;;;6.30;1.40;;;;;;;15.05;46.21;100471.22;4880236;29;20220;-62
2023/04/11 08:44:10;;;;;;;6.87;1.40;;;;;;;15.36;47.05;100478.38;4882564;29;20240;-62
2023/04/11 08:46:41;;;;;;;8.57;1.27;;;;;;;15.69;45.77;100478.97;4881244;29;20227;-62
2023/04/11 08:49:09;;;;;;;6.57;1.50;;;;;;;15.93;44.06;100470.69;4882952;29;20217;-61
2023/04/11 08:51:41;;;;;;;5.97;1.10;;;;;;;16.03;43.99;100471.25;4879225;29;20218;-60
2023/04/11 08:54:09;;;;;;;6.47;1.80;;;;;;;15.96;44.13;100470.34;4881431;29;20222;-60
2023/04/11 08:56:37;;;;;;;6.43;1.70;;;;;;;16.05;44.72;100469.25;4879917;29;20568;-62
2023/04/11 08:59:05;;;;;;;6.77;1.40;;;;;;;16.10;44.98;100468.69;4880821;29;20225;-61
2023/04/11 09:01:36;;;;;;;7.67;1.50;;;;;;;16.04;45.03;100478.28;4883778;29;20214;-60
2023/04/11 09:04:04;;;;;;;8.77;1.53;;;;;;;15.95;46.01;100474.03;4879514;29;20336;-61
2023/04/11 09:06:33;;;;;;;6.10;1.27;;;;;;;16.07;44.87;100474.41;4880082;29;20837;-61
2023/04/11 09:09:05;;;;;;;7.53;1.03;;;;;;;16.02;44.64;100468.75;4881765;29;20218;-60
2023/04/11 09:11:51;;;;;;;7.57;2.00;;;;;;;15.92;45.18;100474.38;4881315;29;20220;-62
2023/04/11 09:14:23;;;;;;;6.70;1.20;;;;;;;15.77;46.57;100473.53;4879980;29;20209;-61
2023/04/11 09:16:54;;;;;;;4.77;0.97;;;;;;;15.28;46.70;100486.44;4880462;29;20226;-62
2023/04/11 09:19:26;;;;;;;10.40;1.20;;;;;;;15.10;48.02;100484.06;4883354;29;20830;-60
2023/04/11 09:21:55;;;;;;;6.50;1.07;;;;;;;14.86;49.08;100486.91;4880391;29;20297;-62
2023/04/11 09:24:25;;;;;;;5.87;1.00;;;;;;;15.26;48.92;100489.28;4877865;29;20210;-63
2023/04/11 09:27:07;;;;;;;4.23;1.00;;;;;;;16.01;47.79;100488.50;4878333;29;20233;-60
2023/04/11 09:29:37;;;;;;;3.97;0.80;;;;;;;16.56;46.06;100496.06;4883409;29;20217;-61
2023/04/11 09:32:06;;;;;;;3.17;0.80;;;;;;;16.84;46.08;100501.63;4879982;29;20213;-61
2023/04/11 09:34:36;;;;;;;6.93;1.00;;;;;;;16.90;45.67;100501.69;4880231;29;20240;-61
2023/04/11 09:37:05;;;;;;;6.33;1.07;;;;;;;16.86;45.03;100510.28;4879220;29;20220;-61
2023/04/11 09:39:34;;;;;;;7.50;1.17;;;;;;;16.58;44.50;100506.59;4880521;29;20687;-62
2023/04/11 09:42:22;;;;;;;12.00;1.50;;;;;;;16.26;45.29;100514.00;4880621;29;20281;-62
2023/04/11 09:44:49;;;;;;;9.10;1.43;;;;;;;15.86;46.33;100522.41;4878746;29;20249;-62
2023/04/11 09:47:17;;;;;;;7.57;1.20;;;;;;;15.69;47.41;100521.72;4881963;29;20233;-62
2023/04/11 09:49:46;;;;;;;7.20;1.30;;;;;;;15.57;46.55;100520.50;4879919;29;20215;-62
2023/04/11 09:52:13;;;;;;;4.33;1.20;;;;;;;15.64;46.81;100518.78;4879582;29;20218;-60
2023/04/11 09:54:42;;;;;;;3.90;0.70;;;;;;;15.87;46.62;100524.09;4881977;29;20218;-63
2023/04/11 09:57:12;;;;;;;5.87;1.20;;;;;;;15.92;45.94;100511.81;4875337;29;20511;-63
2023/04/11 09:59:41;;;;;;;2.80;0.90;;;;;;;15.90;45.41;100519.22;4879437;29;20857;-60
2023/04/11 10:02:09;;;;;;;6.87;1.60;;;;;;;15.97;45.47;100520.16;4881185;29;20248;-62
2023/04/11 10:04:39;;;;;;;3.30;0.93;;;;;;;16.30;44.26;100511.78;4879889;29;20738;-62
2023/04/11 10:07:12;;;;;;;5.67;0.90;;;;;;;16.29;43.88;100508.25;4881450;29;20233;-61
2023/04/11 10:09:45;;;;;;;5.83;1.00;;;;;;;17.29;42.59;100497.78;4878523;29;20672;-61
2023/04/11 10:12:12;;;;;;;3.90;1.07;;;;;;;19.82;37.64;100498.69;4880730;29;20698;-62
2023/04/11 10:14:45;;;;;;;5.10;1.00;;;;;;;23.08;32.07;100498.81;4878199;29;20216;-61
2023/04/11 10:17:15;;;;;;;4.13;0.83;;;;;;;26.74;27.32;100491.47;4877162;29;20213;-61
2023/04/11 10:19:50;;;;;;;6.70;1.37;;;;;;;28.40;25.09;100490.56;4881848;29;20209;-62
2023/04/11 10:23:04;;;;;;;4.60;0.90;;;;;;;28.97;23.12;100486.97;4879892;29;20249;-63
2023/04/11 10:25:48;;;;;;;3.50;0.80;;;;;;;30.61;21.69;100479.25;4846777;29;20213;-61
2023/04/11 10:28:33;;;;;;;3.92;1.08;;;;;;;28.54;23.26;100488.97;4877807;29;20236;-61
2023/04/11 10:31:03;;;;;;;4.75;1.00;;;;;;;25.32;27.01;100499.34;4879051;29;20651;-61
2023/04/11 10:33:32;;;;;;;7.00;1.60;;;;;;;22.32;31.22;100506.56;4881837;29;20678;-60
2023/04/11 10:36:02;;;;;;;7.23;1.20;;;;;;;23.10;32.05;100502.13;4880497;29;20228;-62
2023/04/11 10:38:49;;;;;;;5.07;1.20;;;;;;;22.96;31.67;100478.16;4878137;29;20210;-62
2023/04/11 10:41:25;;;;;;;6.23;1.37;;;;;;;22.71;32.32;100481.78;4881669;29;20739;-61
2023/04/11 10:44:13;;;;;;;5.07;1.20;;;;;;;24.16;31.03;100485.00;4880703;29;20216;-62
2023/04/11 10:46:49;;;;;;;4.43;1.10;;;;;;;25.62;29.26;100483.59;4878399;29;20218;-61
2023/04/11 10:49:34;;;;;;;3.78;1.00;;;;;;;26.51;27.12;100473.53;4875913;29;20213;-62
2023/04/11 10:52:21;;;;;;;4.13;1.00;;;;;;;27.27;26.37;100474.41;4882485;29;20663;-62
2023/04/11 10:54:51;;;;;;;4.00;1.05;;;;;;;27.68;26.18;100463.91;4881428;29;20213;-63
2023/04/11 10:57:21;;;;;;;4.40;1.25;;;;;;;28.76;25.82;100458.78;4879279;29;20577;-65
2023/04/11 10:59:59;;;;;;;4.32;1.08;;;;;;;30.05;23.64;100446.63;4879947;29;20579;-62
2023/04/11 11:02:37;;;;;;;5.13;1.30;;;;;;;30.51;22.04;100451.94;4879797;29;20323;-61
2023/04/11 11:05:24;;;;;;;4.07;1.17;;;;;;;30.33;22.39;100450.63;4879274;29;20333;-61
2023/04/11 11:07:53;;;;;;;4.18;1.05;;;;;;;30.28;21.07;100443.25;4881148;29;20237;-62
2023/04/11 11:10:41;;;;;;;5.07;1.00;;;;;;;30.40;21.27;100439.38;4879435;29;20217;-62
2023/04/11 11:13:10;;;;;;;4.47;1.02;;;;;;;30.15;21.67;100445.78;4878316;29;20213;-62
2023/04/11 11:15:38;;;;;;;5.05;1.10;;;;;;;30.28;21.63;100436.97;4882241;29;20660;-63
2023/04/11 11:18:08;;;;;;;5.05;1.05;;;;;;;31.87;20.72;100427.44;4880332;29;20229;-62
2023/04/11 11:20:37;;;;;;;4.18;1.27;;;;;;;33.57;19.17;100428.16;4877899;29;20224;-61
2023/04/11 11:23:07;;;;;;;3.35;1.13;;;;;;;35.78;16.73;100411.78;4876760;29;20253;-62
2023/04/11 11:25:36;;;;;;;6.50;1.23;;;;;;;38.16;14.94;100419.97;4879067;29;20209;-61
2023/04/11 11:28:05;;;;;;;8.18;1.15;;;;;;;37.16;15.42;100427.88;4879390;29;20763;-61
2023/04/11 11:30:36;;;;;;;7.18;1.30;;;;;;;36.61;15.88;100428.44;4877020;29;20297;-62
2023/04/11 11:33:17;;;;;;;3.63;1.10;;;;;;;39.62;13.83;100423.56;4877828;29;20222;-62
2023/04/11 11:35:51;;;;;;;5.40;1.73;;;;;;;40.68;14.20;100417.97;4878317;29;20296;-62